sensor_id;sensor_type;location;lat;lon;timestamp;temperature;humidity
75321;DHT22;68337;52.196;5.660;2023-05-20T00:00:47;11.30;99.90
75321;DHT22;68337;52.196;5.660;2023-05-20T00:03:14;11.30;99.90
75321;DHT22;68337;52.196;5.660;2023-05-20T00:05:40;11.30;99.90
75321;DHT22;68337;52.196;5.660;2023-05-20T00:08:05;11.20;99.90
75321;DHT22;68337;52.196;5.660;2023-05-20T00:10:34;11.20;99.90
75321;DHT22;68337;52.196;5.660;2023-05-20T00:13:00;11.10;99.90
75321;DHT22;68337;52.196;5.660;2023-05-20T00:15:26;11.10;99.90
75321;DHT22;68337;52.196;5.660;2023-05-20T00:17:52;11.00;99.90
75321;DHT22;68337;52.196;5.660;2023-05-20T00:20:17;11.10;99.90
75321;DHT22;68337;52.196;5.660;2023-05-20T00:22:43;11.00;99.90
75321;DHT22;68337;52.196;5.660;2023-05-20T00:25:09;11.00;99.90
75321;DHT22;68337;52.196;5.660;2023-05-20T00:27:34;11.00;99.90
75321;DHT22;68337;52.196;5.660;2023-05-20T00:30:00;11.00;99.90
75321;DHT22;68337;52.196;5.660;2023-05-20T00:32:26;11.00;99.90
75321;DHT22;68337;52.196;5.660;2023-05-20T00:34:56;10.90;99.90
75321;DHT22;68337;52.196;5.660;2023-05-20T00:37:22;11.00;99.90
75321;DHT22;68337;52.196;5.660;2023-05-20T00:39:49;11.00;99.90
75321;DHT22;68337;52.196;5.660;2023-05-20T00:42:25;10.90;99.90
75321;DHT22;68337;52.196;5.660;2023-05-20T00:44:51;10.90;99.90
75321;DHT22;68337;52.196;5.660;2023-05-20T00:47:19;10.80;99.90
75321;DHT22;68337;52.196;5.660;2023-05-20T00:49:45;10.80;99.90
75321;DHT22;68337;52.196;5.660;2023-05-20T00:52:12;10.80;99.90
75321;DHT22;68337;52.196;5.660;2023-05-20T00:54:39;10.80;99.90
75321;DHT22;68337;52.196;5.660;2023-05-20T00:57:07;10.80;99.90
75321;DHT22;68337;52.196;5.660;2023-05-20T00:59:35;10.70;99.90
75321;DHT22;68337;52.196;5.660;2023-05-20T01:02:02;10.70;99.90
75321;DHT22;68337;52.196;5.660;2023-05-20T01:04:29;10.70;99.90
75321;DHT22;68337;52.196;5.660;2023-05-20T01:06:55;10.70;99.90
75321;DHT22;68337;52.196;5.660;2023-05-20T01:09:22;10.70;99.90
75321;DHT22;68337;52.196;5.660;2023-05-20T01:11:53;10.70;99.90
75321;DHT22;68337;52.196;5.660;2023-05-20T01:14:22;10.60;99.90
75321;DHT22;68337;52.196;5.660;2023-05-20T01:16:49;10.60;99.90
75321;DHT22;68337;52.196;5.660;2023-05-20T01:19:35;10.60;99.90
75321;DHT22;68337;52.196;5.660;2023-05-20T01:22:05;10.60;99.90
75321;DHT22;68337;52.196;5.660;2023-05-20T01:24:32;10.50;99.90
75321;DHT22;68337;52.196;5.660;2023-05-20T01:26:58;10.50;99.90
75321;DHT22;68337;52.196;5.660;2023-05-20T01:29:24;10.50;99.90
75321;DHT22;68337;52.196;5.660;2023-05-20T01:31:52;10.40;99.90
75321;DHT22;68337;52.196;5.660;2023-05-20T01:34:19;10.40;99.90
75321;DHT22;68337;52.196;5.660;2023-05-20T01:36:45;10.40;99.90
75321;DHT22;68337;52.196;5.660;2023-05-20T01:39:12;10.40;99.90
75321;DHT22;68337;52.196;5.660;2023-05-20T01:41:39;10.40;99.90
75321;DHT22;68337;52.196;5.660;2023-05-20T01:44:06;10.40;99.90
75321;DHT22;68337;52.196;5.660;2023-05-20T01:46:32;10.40;99.90
75321;DHT22;68337;52.196;5.660;2023-05-20T01:48:59;10.40;99.90
75321;DHT22;68337;52.196;5.660;2023-05-20T01:51:24;10.40;99.90
75321;DHT22;68337;52.196;5.660;2023-05-20T01:53:50;10.40;99.90
75321;DHT22;68337;52.196;5.660;2023-05-20T01:56:16;10.40;99.90
75321;DHT22;68337;52.196;5.660;2023-05-20T01:58:41;10.40;99.90
75321;DHT22;68337;52.196;5.660;2023-05-20T02:01:07;10.30;99.90
75321;DHT22;68337;52.196;5.660;2023-05-20T02:03:32;10.30;99.90
75321;DHT22;68337;52.196;5.660;2023-05-20T02:05:58;10.30;99.90
75321;DHT22;68337;52.196;5.660;2023-05-20T02:08:24;10.20;99.90
75321;DHT22;68337;52.196;5.660;2023-05-20T02:10:49;10.30;99.90
75321;DHT22;68337;52.196;5.660;2023-05-20T02:13:15;10.30;99.90
75321;DHT22;68337;52.196;5.660;2023-05-20T02:15:41;10.30;99.90
75321;DHT22;68337;52.196;5.660;2023-05-20T02:18:07;10.30;99.90
75321;DHT22;68337;52.196;5.660;2023-05-20T02:20:36;10.30;99.90
75321;DHT22;68337;52.196;5.660;2023-05-20T02:23:01;10.20;99.90
75321;DHT22;68337;52.196;5.660;2023-05-20T02:25:30;10.30;99.90
75321;DHT22;68337;52.196;5.660;2023-05-20T02:27:56;10.30;99.90
75321;DHT22;68337;52.196;5.660;2023-05-20T02:30:21;10.30;99.90
75321;DHT22;68337;52.196;5.660;2023-05-20T02:32:47;10.30;99.90
75321;DHT22;68337;52.196;5.660;2023-05-20T02:35:13;10.20;99.90
75321;DHT22;68337;52.196;5.660;2023-05-20T02:37:38;10.20;99.90
75321;DHT22;68337;52.196;5.660;2023-05-20T02:40:05;10.30;99.90
75321;DHT22;68337;52.196;5.660;2023-05-20T02:42:31;10.20;99.90
75321;DHT22;68337;52.196;5.660;2023-05-20T02:44:56;10.20;99.90
75321;DHT22;68337;52.196;5.660;2023-05-20T02:47:24;10.10;99.90
75321;DHT22;68337;52.196;5.660;2023-05-20T02:49:50;10.10;99.90
75321;DHT22;68337;52.196;5.660;2023-05-20T02:52:15;10.10;99.90
75321;DHT22;68337;52.196;5.660;2023-05-20T02:54:41;10.10;99.90
75321;DHT22;68337;52.196;5.660;2023-05-20T02:57:06;10.10;99.90
75321;DHT22;68337;52.196;5.660;2023-05-20T02:59:32;10.20;99.90
75321;DHT22;68337;52.196;5.660;2023-05-20T03:01:58;10.10;99.90
75321;DHT22;68337;52.196;5.660;2023-05-20T03:04:23;10.10;99.90
75321;DHT22;68337;52.196;5.660;2023-05-20T03:06:50;10.10;99.90
75321;DHT22;68337;52.196;5.660;2023-05-20T03:09:16;10.10;99.90
75321;DHT22;68337;52.196;5.660;2023-05-20T03:11:44;10.20;99.90
75321;DHT22;68337;52.196;5.660;2023-05-20T03:14:10;10.20;99.90
75321;DHT22;68337;52.196;5.660;2023-05-20T03:16:36;10.20;99.90
75321;DHT22;68337;52.196;5.660;2023-05-20T03:19:02;10.20;99.90
75321;DHT22;68337;52.196;5.660;2023-05-20T03:21:28;10.20;99.90
75321;DHT22;68337;52.196;5.660;2023-05-20T03:23:53;10.20;99.90
75321;DHT22;68337;52.196;5.660;2023-05-20T03:26:19;10.20;99.90
75321;DHT22;68337;52.196;5.660;2023-05-20T03:28:46;10.20;99.90
75321;DHT22;68337;52.196;5.660;2023-05-20T03:31:11;10.20;99.90
75321;DHT22;68337;52.196;5.660;2023-05-20T03:33:37;10.20;99.90
75321;DHT22;68337;52.196;5.660;2023-05-20T03:36:03;10.20;99.90
75321;DHT22;68337;52.196;5.660;2023-05-20T03:38:29;10.20;99.90
75321;DHT22;68337;52.196;5.660;2023-05-20T03:40:55;10.20;99.90
75321;DHT22;68337;52.196;5.660;2023-05-20T03:43:21;10.10;99.90
75321;DHT22;68337;52.196;5.660;2023-05-20T03:45:46;10.20;99.90
75321;DHT22;68337;52.196;5.660;2023-05-20T03:48:12;10.10;99.90
75321;DHT22;68337;52.196;5.660;2023-05-20T03:50:37;10.20;99.90
75321;DHT22;68337;52.196;5.660;2023-05-20T03:53:03;10.30;99.90
75321;DHT22;68337;52.196;5.660;2023-05-20T03:55:29;10.30;99.90
75321;DHT22;68337;52.196;5.660;2023-05-20T03:57:54;10.40;99.90
75321;DHT22;68337;52.196;5.660;2023-05-20T04:00:20;10.40;99.90
75321;DHT22;68337;52.196;5.660;2023-05-20T04:02:47;10.40;99.90
75321;DHT22;68337;52.196;5.660;2023-05-20T04:05:12;10.40;99.90
75321;DHT22;68337;52.196;5.660;2023-05-20T04:07:38;10.40;99.90
75321;DHT22;68337;52.196;5.660;2023-05-20T04:10:04;10.40;99.90
75321;DHT22;68337;52.196;5.660;2023-05-20T04:12:30;10.50;99.90
75321;DHT22;68337;52.196;5.660;2023-05-20T04:15:00;10.40;99.90
75321;DHT22;68337;52.196;5.660;2023-05-20T04:17:29;10.40;99.90
75321;DHT22;68337;52.196;5.660;2023-05-20T04:19:56;10.40;99.90
75321;DHT22;68337;52.196;5.660;2023-05-20T04:22:24;10.30;99.90
75321;DHT22;68337;52.196;5.660;2023-05-20T04:24:51;10.40;99.90
75321;DHT22;68337;52.196;5.660;2023-05-20T04:27:16;10.40;99.90
75321;DHT22;68337;52.196;5.660;2023-05-20T04:29:42;10.40;99.90
75321;DHT22;68337;52.196;5.660;2023-05-20T04:32:17;10.40;99.90
75321;DHT22;68337;52.196;5.660;2023-05-20T04:34:44;10.40;99.90
75321;DHT22;68337;52.196;5.660;2023-05-20T04:37:13;10.50;99.90
75321;DHT22;68337;52.196;5.660;2023-05-20T04:39:39;10.50;99.90
75321;DHT22;68337;52.196;5.660;2023-05-20T04:42:04;10.60;99.90
75321;DHT22;68337;52.196;5.660;2023-05-20T04:44:30;10.60;99.90
75321;DHT22;68337;52.196;5.660;2023-05-20T04:46:56;10.60;99.90
75321;DHT22;68337;52.196;5.660;2023-05-20T04:49:23;10.70;99.90
75321;DHT22;68337;52.196;5.660;2023-05-20T04:51:51;10.70;99.90
75321;DHT22;68337;52.196;5.660;2023-05-20T04:54:16;10.80;99.90
75321;DHT22;68337;52.196;5.660;2023-05-20T04:56:42;10.80;99.90
75321;DHT22;68337;52.196;5.660;2023-05-20T04:59:08;11.00;99.90
75321;DHT22;68337;52.196;5.660;2023-05-20T05:01:35;11.10;99.90
75321;DHT22;68337;52.196;5.660;2023-05-20T05:04:01;11.10;99.90
75321;DHT22;68337;52.196;5.660;2023-05-20T05:06:27;11.30;99.90
75321;DHT22;68337;52.196;5.660;2023-05-20T05:08:53;11.40;99.90
75321;DHT22;68337;52.196;5.660;2023-05-20T05:11:18;11.50;99.90
75321;DHT22;68337;52.196;5.660;2023-05-20T05:13:44;11.60;99.90
75321;DHT22;68337;52.196;5.660;2023-05-20T05:16:10;11.70;99.90
75321;DHT22;68337;52.196;5.660;2023-05-20T05:18:36;11.80;99.90
75321;DHT22;68337;52.196;5.660;2023-05-20T05:21:03;12.00;99.90
75321;DHT22;68337;52.196;5.660;2023-05-20T05:23:29;12.10;99.90
75321;DHT22;68337;52.196;5.660;2023-05-20T05:25:55;12.30;99.90
75321;DHT22;68337;52.196;5.660;2023-05-20T05:28:21;12.40;99.90
75321;DHT22;68337;52.196;5.660;2023-05-20T05:30:46;12.50;99.90
75321;DHT22;68337;52.196;5.660;2023-05-20T05:33:13;12.70;99.90
75321;DHT22;68337;52.196;5.660;2023-05-20T05:35:40;12.80;99.90
75321;DHT22;68337;52.196;5.660;2023-05-20T05:38:06;12.90;99.90
75321;DHT22;68337;52.196;5.660;2023-05-20T05:40:32;12.90;99.90
75321;DHT22;68337;52.196;5.660;2023-05-20T05:42:58;13.00;99.90
75321;DHT22;68337;52.196;5.660;2023-05-20T05:45:24;13.20;99.90
75321;DHT22;68337;52.196;5.660;2023-05-20T05:47:49;13.30;99.90
75321;DHT22;68337;52.196;5.660;2023-05-20T05:50:15;13.40;99.90
75321;DHT22;68337;52.196;5.660;2023-05-20T05:52:41;13.50;99.90
75321;DHT22;68337;52.196;5.660;2023-05-20T05:55:08;13.70;99.90
75321;DHT22;68337;52.196;5.660;2023-05-20T05:57:34;13.90;99.90
75321;DHT22;68337;52.196;5.660;2023-05-20T06:00:00;14.00;99.90
75321;DHT22;68337;52.196;5.660;2023-05-20T06:02:26;14.20;99.90
75321;DHT22;68337;52.196;5.660;2023-05-20T06:04:51;14.30;99.90
75321;DHT22;68337;52.196;5.660;2023-05-20T06:07:17;14.40;99.90
75321;DHT22;68337;52.196;5.660;2023-05-20T06:09:43;14.70;99.90
75321;DHT22;68337;52.196;5.660;2023-05-20T06:12:09;14.70;99.90
75321;DHT22;68337;52.196;5.660;2023-05-20T06:14:34;14.80;99.90
75321;DHT22;68337;52.196;5.660;2023-05-20T06:17:00;14.80;99.90
75321;DHT22;68337;52.196;5.660;2023-05-20T06:19:27;14.90;99.90
75321;DHT22;68337;52.196;5.660;2023-05-20T06:21:52;15.20;99.90
75321;DHT22;68337;52.196;5.660;2023-05-20T06:24:18;15.30;99.90
75321;DHT22;68337;52.196;5.660;2023-05-20T06:26:44;15.40;99.90
75321;DHT22;68337;52.196;5.660;2023-05-20T06:29:10;15.50;99.90
75321;DHT22;68337;52.196;5.660;2023-05-20T06:31:36;15.40;99.90
75321;DHT22;68337;52.196;5.660;2023-05-20T06:34:02;15.40;99.90
75321;DHT22;68337;52.196;5.660;2023-05-20T06:36:27;15.60;99.90
75321;DHT22;68337;52.196;5.660;2023-05-20T06:38:53;15.90;99.90
75321;DHT22;68337;52.196;5.660;2023-05-20T06:41:19;16.00;99.90
75321;DHT22;68337;52.196;5.660;2023-05-20T06:43:46;16.10;99.90
75321;DHT22;68337;52.196;5.660;2023-05-20T06:46:12;16.30;99.90
75321;DHT22;68337;52.196;5.660;2023-05-20T06:48:38;16.40;99.90
75321;DHT22;68337;52.196;5.660;2023-05-20T06:51:06;16.40;99.90
75321;DHT22;68337;52.196;5.660;2023-05-20T06:53:34;16.70;99.90
75321;DHT22;68337;52.196;5.660;2023-05-20T06:55:59;16.70;99.90
75321;DHT22;68337;52.196;5.660;2023-05-20T06:58:25;16.80;99.90
75321;DHT22;68337;52.196;5.660;2023-05-20T07:00:51;17.00;99.90
75321;DHT22;68337;52.196;5.660;2023-05-20T07:03:17;16.80;99.90
75321;DHT22;68337;52.196;5.660;2023-05-20T07:05:43;16.90;99.90
75321;DHT22;68337;52.196;5.660;2023-05-20T07:08:08;17.20;99.90
75321;DHT22;68337;52.196;5.660;2023-05-20T07:10:34;17.40;99.90
75321;DHT22;68337;52.196;5.660;2023-05-20T07:13:00;17.50;99.90
75321;DHT22;68337;52.196;5.660;2023-05-20T07:15:25;17.80;99.90
75321;DHT22;68337;52.196;5.660;2023-05-20T07:17:51;18.10;99.90
75321;DHT22;68337;52.196;5.660;2023-05-20T07:20:17;18.10;99.90
75321;DHT22;68337;52.196;5.660;2023-05-20T07:22:42;18.00;99.90
75321;DHT22;68337;52.196;5.660;2023-05-20T07:25:13;18.20;99.90
75321;DHT22;68337;52.196;5.660;2023-05-20T07:27:39;18.40;99.90
75321;DHT22;68337;52.196;5.660;2023-05-20T07:30:05;18.20;99.90
75321;DHT22;68337;52.196;5.660;2023-05-20T07:32:31;18.20;99.90
75321;DHT22;68337;52.196;5.660;2023-05-20T07:34:57;18.40;99.90
75321;DHT22;68337;52.196;5.660;2023-05-20T07:37:22;18.80;99.90
75321;DHT22;68337;52.196;5.660;2023-05-20T07:39:48;19.10;99.90
75321;DHT22;68337;52.196;5.660;2023-05-20T07:42:14;19.30;99.90
75321;DHT22;68337;52.196;5.660;2023-05-20T07:44:39;18.90;99.90
75321;DHT22;68337;52.196;5.660;2023-05-20T07:47:05;18.80;99.90
75321;DHT22;68337;52.196;5.660;2023-05-20T07:49:30;19.30;99.90
75321;DHT22;68337;52.196;5.660;2023-05-20T07:51:56;19.60;99.90
75321;DHT22;68337;52.196;5.660;2023-05-20T07:54:22;19.80;99.90
75321;DHT22;68337;52.196;5.660;2023-05-20T07:56:48;19.50;99.90
75321;DHT22;68337;52.196;5.660;2023-05-20T07:59:13;19.80;99.90
75321;DHT22;68337;52.196;5.660;2023-05-20T08:01:40;19.90;99.70
75321;DHT22;68337;52.196;5.660;2023-05-20T08:04:06;19.80;98.60
75321;DHT22;68337;52.196;5.660;2023-05-20T08:06:32;20.00;96.20
75321;DHT22;68337;52.196;5.660;2023-05-20T08:08:57;20.10;94.50
75321;DHT22;68337;52.196;5.660;2023-05-20T08:11:23;20.20;93.00
75321;DHT22;68337;52.196;5.660;2023-05-20T08:13:49;20.20;92.10
75321;DHT22;68337;52.196;5.660;2023-05-20T08:16:14;20.30;94.40
75321;DHT22;68337;52.196;5.660;2023-05-20T08:18:40;20.40;92.50
75321;DHT22;68337;52.196;5.660;2023-05-20T08:21:06;20.40;92.70
75321;DHT22;68337;52.196;5.660;2023-05-20T08:23:35;20.70;91.30
75321;DHT22;68337;52.196;5.660;2023-05-20T08:26:01;21.20;89.90
75321;DHT22;68337;52.196;5.660;2023-05-20T08:28:28;20.90;87.30
75321;DHT22;68337;52.196;5.660;2023-05-20T08:30:54;20.90;83.40
75321;DHT22;68337;52.196;5.660;2023-05-20T08:33:20;20.70;79.50
75321;DHT22;68337;52.196;5.660;2023-05-20T08:35:47;20.60;82.90
75321;DHT22;68337;52.196;5.660;2023-05-20T08:38:13;20.30;82.50
75321;DHT22;68337;52.196;5.660;2023-05-20T08:40:39;20.40;83.00
75321;DHT22;68337;52.196;5.660;2023-05-20T08:43:04;20.30;83.20
75321;DHT22;68337;52.196;5.660;2023-05-20T08:45:32;20.60;80.60
75321;DHT22;68337;52.196;5.660;2023-05-20T08:47:58;21.20;80.40
75321;DHT22;68337;52.196;5.660;2023-05-20T08:50:24;21.60;75.70
75321;DHT22;68337;52.196;5.660;2023-05-20T08:52:50;21.80;73.70
75321;DHT22;68337;52.196;5.660;2023-05-20T08:55:37;21.20;72.50
75321;DHT22;68337;52.196;5.660;2023-05-20T08:58:06;21.30;74.20
75321;DHT22;68337;52.196;5.660;2023-05-20T09:00:32;21.50;73.30
75321;DHT22;68337;52.196;5.660;2023-05-20T09:02:58;21.30;72.10
75321;DHT22;68337;52.196;5.660;2023-05-20T09:05:25;21.60;69.00
75321;DHT22;68337;52.196;5.660;2023-05-20T09:07:51;21.20;68.00
75321;DHT22;68337;52.196;5.660;2023-05-20T09:10:19;21.30;67.00
75321;DHT22;68337;52.196;5.660;2023-05-20T09:12:45;21.10;67.70
75321;DHT22;68337;52.196;5.660;2023-05-20T09:15:10;21.30;66.70
75321;DHT22;68337;52.196;5.660;2023-05-20T09:17:37;21.30;66.90
75321;DHT22;68337;52.196;5.660;2023-05-20T09:20:08;21.80;65.80
75321;DHT22;68337;52.196;5.660;2023-05-20T09:22:34;21.90;62.60
75321;DHT22;68337;52.196;5.660;2023-05-20T09:24:59;22.00;60.00
75321;DHT22;68337;52.196;5.660;2023-05-20T09:27:25;21.60;63.10
75321;DHT22;68337;52.196;5.660;2023-05-20T09:29:51;21.80;62.30
75321;DHT22;68337;52.196;5.660;2023-05-20T09:32:20;21.70;59.70
75321;DHT22;68337;52.196;5.660;2023-05-20T09:34:48;21.70;60.70
75321;DHT22;68337;52.196;5.660;2023-05-20T09:37:16;21.70;60.00
75321;DHT22;68337;52.196;5.660;2023-05-20T09:40:16;22.00;60.40
75321;DHT22;68337;52.196;5.660;2023-05-20T09:42:52;22.00;59.30
75321;DHT22;68337;52.196;5.660;2023-05-20T09:45:18;21.60;60.90
75321;DHT22;68337;52.196;5.660;2023-05-20T09:47:44;21.60;59.70
75321;DHT22;68337;52.196;5.660;2023-05-20T09:50:11;21.60;60.90
75321;DHT22;68337;52.196;5.660;2023-05-20T09:52:38;21.50;59.70
75321;DHT22;68337;52.196;5.660;2023-05-20T09:55:07;22.00;59.10
75321;DHT22;68337;52.196;5.660;2023-05-20T09:57:36;22.20;59.30
75321;DHT22;68337;52.196;5.660;2023-05-20T10:00:03;22.20;59.50
75321;DHT22;68337;52.196;5.660;2023-05-20T10:02:30;21.90;58.40
75321;DHT22;68337;52.196;5.660;2023-05-20T10:04:58;22.40;58.00
75321;DHT22;68337;52.196;5.660;2023-05-20T10:13:36;22.30;57.50
75321;DHT22;68337;52.196;5.660;2023-05-20T10:19:13;22.20;59.90
75321;DHT22;68337;52.196;5.660;2023-05-20T10:21:40;21.70;58.70
75321;DHT22;68337;52.196;5.660;2023-05-20T10:24:09;21.80;57.70
75321;DHT22;68337;52.196;5.660;2023-05-20T10:26:39;22.00;57.40
75321;DHT22;68337;52.196;5.660;2023-05-20T10:29:25;21.90;56.50
75321;DHT22;68337;52.196;5.660;2023-05-20T10:31:52;22.20;57.40
75321;DHT22;68337;52.196;5.660;2023-05-20T10:34:21;22.50;56.80
75321;DHT22;68337;52.196;5.660;2023-05-20T10:39:25;23.20;55.10
75321;DHT22;68337;52.196;5.660;2023-05-20T10:41:52;23.40;55.70
75321;DHT22;68337;52.196;5.660;2023-05-20T10:44:17;23.70;55.10
75321;DHT22;68337;52.196;5.660;2023-05-20T10:46:43;24.40;54.30
75321;DHT22;68337;52.196;5.660;2023-05-20T10:49:18;24.30;52.90
75321;DHT22;68337;52.196;5.660;2023-05-20T10:51:47;24.10;52.00
75321;DHT22;68337;52.196;5.660;2023-05-20T10:54:13;24.20;52.20
75321;DHT22;68337;52.196;5.660;2023-05-20T10:56:39;24.00;51.80
75321;DHT22;68337;52.196;5.660;2023-05-20T10:59:15;23.90;51.40
75321;DHT22;68337;52.196;5.660;2023-05-20T11:01:41;24.10;51.20
75321;DHT22;68337;52.196;5.660;2023-05-20T11:04:08;24.10;50.80
75321;DHT22;68337;52.196;5.660;2023-05-20T11:06:34;24.10;51.20
75321;DHT22;68337;52.196;5.660;2023-05-20T11:09:04;23.90;51.60
75321;DHT22;68337;52.196;5.660;2023-05-20T11:11:31;23.60;52.40
75321;DHT22;68337;52.196;5.660;2023-05-20T11:13:56;23.80;52.10
75321;DHT22;68337;52.196;5.660;2023-05-20T11:16:22;23.30;52.80
75321;DHT22;68337;52.196;5.660;2023-05-20T11:18:48;23.20;53.10
75321;DHT22;68337;52.196;5.660;2023-05-20T11:21:15;23.20;53.30
75321;DHT22;68337;52.196;5.660;2023-05-20T11:23:41;23.60;52.50
75321;DHT22;68337;52.196;5.660;2023-05-20T11:26:06;23.60;51.40
75321;DHT22;68337;52.196;5.660;2023-05-20T11:28:34;24.00;52.80
75321;DHT22;68337;52.196;5.660;2023-05-20T11:31:00;24.30;51.60
75321;DHT22;68337;52.196;5.660;2023-05-20T11:33:26;24.90;51.40
75321;DHT22;68337;52.196;5.660;2023-05-20T11:35:52;25.10;49.20
75321;DHT22;68337;52.196;5.660;2023-05-20T11:38:19;25.60;49.90
75321;DHT22;68337;52.196;5.660;2023-05-20T11:40:50;25.70;50.00
75321;DHT22;68337;52.196;5.660;2023-05-20T11:43:15;25.80;48.50
75321;DHT22;68337;52.196;5.660;2023-05-20T11:45:43;25.30;49.80
75321;DHT22;68337;52.196;5.660;2023-05-20T11:48:10;24.90;49.60
75321;DHT22;68337;52.196;5.660;2023-05-20T11:50:42;23.80;50.20
75321;DHT22;68337;52.196;5.660;2023-05-20T11:53:13;24.10;51.50
75321;DHT22;68337;52.196;5.660;2023-05-20T11:55:49;23.90;50.60
75321;DHT22;68337;52.196;5.660;2023-05-20T11:58:23;23.40;52.60
75321;DHT22;68337;52.196;5.660;2023-05-20T12:00:50;23.30;51.60
75321;DHT22;68337;52.196;5.660;2023-05-20T12:03:16;23.20;53.00
75321;DHT22;68337;52.196;5.660;2023-05-20T12:05:42;22.70;52.40
75321;DHT22;68337;52.196;5.660;2023-05-20T12:08:08;23.00;53.70
75321;DHT22;68337;52.196;5.660;2023-05-20T12:10:34;23.50;53.20
75321;DHT22;68337;52.196;5.660;2023-05-20T12:13:01;22.90;52.80
75321;DHT22;68337;52.196;5.660;2023-05-20T12:15:28;22.90;54.20
75321;DHT22;68337;52.196;5.660;2023-05-20T12:17:53;23.50;52.60
75321;DHT22;68337;52.196;5.660;2023-05-20T12:20:23;23.90;51.90
75321;DHT22;68337;52.196;5.660;2023-05-20T12:22:49;24.60;51.40
75321;DHT22;68337;52.196;5.660;2023-05-20T12:25:16;25.20;49.70
75321;DHT22;68337;52.196;5.660;2023-05-20T12:27:44;25.30;48.00
75321;DHT22;68337;52.196;5.660;2023-05-20T12:30:15;25.70;47.70
75321;DHT22;68337;52.196;5.660;2023-05-20T12:32:42;25.70;47.80
75321;DHT22;68337;52.196;5.660;2023-05-20T12:35:08;26.10;48.40
75321;DHT22;68337;52.196;5.660;2023-05-20T12:37:35;26.10;48.20
75321;DHT22;68337;52.196;5.660;2023-05-20T12:40:01;24.80;48.40
75321;DHT22;68337;52.196;5.660;2023-05-20T12:42:42;24.20;50.60
75321;DHT22;68337;52.196;5.660;2023-05-20T12:45:08;24.30;51.00
75321;DHT22;68337;52.196;5.660;2023-05-20T12:47:35;23.60;50.60
75321;DHT22;68337;52.196;5.660;2023-05-20T12:50:01;23.40;51.80
75321;DHT22;68337;52.196;5.660;2023-05-20T12:52:27;23.50;52.60
75321;DHT22;68337;52.196;5.660;2023-05-20T12:54:54;23.50;52.50
75321;DHT22;68337;52.196;5.660;2023-05-20T12:57:20;23.60;52.30
75321;DHT22;68337;52.196;5.660;2023-05-20T12:59:46;23.30;51.40
75321;DHT22;68337;52.196;5.660;2023-05-20T13:02:11;23.20;52.90
75321;DHT22;68337;52.196;5.660;2023-05-20T13:04:37;23.20;53.60
75321;DHT22;68337;52.196;5.660;2023-05-20T13:07:03;23.60;52.60
75321;DHT22;68337;52.196;5.660;2023-05-20T13:09:28;24.00;51.00
75321;DHT22;68337;52.196;5.660;2023-05-20T13:11:54;24.30;51.80
75321;DHT22;68337;52.196;5.660;2023-05-20T13:14:20;24.60;50.80
75321;DHT22;68337;52.196;5.660;2023-05-20T13:16:47;24.80;50.30
75321;DHT22;68337;52.196;5.660;2023-05-20T13:19:13;24.60;50.10
75321;DHT22;68337;52.196;5.660;2023-05-20T13:21:39;25.10;49.30
75321;DHT22;68337;52.196;5.660;2023-05-20T13:24:05;25.40;49.10
75321;DHT22;68337;52.196;5.660;2023-05-20T13:26:30;25.70;49.20
75321;DHT22;68337;52.196;5.660;2023-05-20T13:28:56;25.70;48.40
75321;DHT22;68337;52.196;5.660;2023-05-20T13:31:22;25.50;49.00
75321;DHT22;68337;52.196;5.660;2023-05-20T13:33:47;25.10;48.40
75321;DHT22;68337;52.196;5.660;2023-05-20T13:36:13;25.00;49.00
75321;DHT22;68337;52.196;5.660;2023-05-20T13:38:39;25.20;49.20
75321;DHT22;68337;52.196;5.660;2023-05-20T13:41:04;25.50;49.10
75321;DHT22;68337;52.196;5.660;2023-05-20T13:43:30;25.00;49.40
75321;DHT22;68337;52.196;5.660;2023-05-20T13:45:57;25.10;49.50
75321;DHT22;68337;52.196;5.660;2023-05-20T13:48:23;25.50;48.80
75321;DHT22;68337;52.196;5.660;2023-05-20T13:50:48;25.50;47.90
75321;DHT22;68337;52.196;5.660;2023-05-20T13:53:14;24.30;48.80
75321;DHT22;68337;52.196;5.660;2023-05-20T13:55:40;23.70;50.50
75321;DHT22;68337;52.196;5.660;2023-05-20T13:58:06;23.30;51.10
75321;DHT22;68337;52.196;5.660;2023-05-20T14:00:35;23.50;51.10
75321;DHT22;68337;52.196;5.660;2023-05-20T14:03:01;23.70;50.90
75321;DHT22;68337;52.196;5.660;2023-05-20T14:05:30;23.90;51.00
75321;DHT22;68337;52.196;5.660;2023-05-20T14:07:57;24.40;50.30
75321;DHT22;68337;52.196;5.660;2023-05-20T14:10:22;24.80;49.10
75321;DHT22;68337;52.196;5.660;2023-05-20T14:12:48;25.10;48.50
75321;DHT22;68337;52.196;5.660;2023-05-20T14:15:14;25.00;48.80
75321;DHT22;68337;52.196;5.660;2023-05-20T14:17:40;24.60;48.60
75321;DHT22;68337;52.196;5.660;2023-05-20T14:20:07;24.90;49.60
75321;DHT22;68337;52.196;5.660;2023-05-20T14:22:32;24.70;48.00
75321;DHT22;68337;52.196;5.660;2023-05-20T14:24:58;24.50;49.90
75321;DHT22;68337;52.196;5.660;2023-05-20T14:27:23;24.50;50.20
75321;DHT22;68337;52.196;5.660;2023-05-20T14:29:49;24.30;50.80
75321;DHT22;68337;52.196;5.660;2023-05-20T14:32:15;24.30;50.10
75321;DHT22;68337;52.196;5.660;2023-05-20T14:34:41;24.80;49.50
75321;DHT22;68337;52.196;5.660;2023-05-20T14:37:06;25.00;49.40
75321;DHT22;68337;52.196;5.660;2023-05-20T14:39:37;24.90;49.80
75321;DHT22;68337;52.196;5.660;2023-05-20T14:42:03;24.10;49.90
75321;DHT22;68337;52.196;5.660;2023-05-20T14:44:29;23.40;52.30
75321;DHT22;68337;52.196;5.660;2023-05-20T14:46:55;23.00;52.70
75321;DHT22;68337;52.196;5.660;2023-05-20T14:49:21;23.00;53.00
75321;DHT22;68337;52.196;5.660;2023-05-20T14:51:47;23.40;53.00
75321;DHT22;68337;52.196;5.660;2023-05-20T14:54:13;23.80;52.20
75321;DHT22;68337;52.196;5.660;2023-05-20T14:56:41;24.30;51.00
75321;DHT22;68337;52.196;5.660;2023-05-20T14:59:06;24.30;49.80
75321;DHT22;68337;52.196;5.660;2023-05-20T15:01:32;23.80;50.10
75321;DHT22;68337;52.196;5.660;2023-05-20T15:03:58;23.40;51.20
75321;DHT22;68337;52.196;5.660;2023-05-20T15:06:24;23.40;52.20
75321;DHT22;68337;52.196;5.660;2023-05-20T15:08:50;23.50;51.50
75321;DHT22;68337;52.196;5.660;2023-05-20T15:11:17;23.30;52.50
75321;DHT22;68337;52.196;5.660;2023-05-20T15:13:42;23.50;52.20
75321;DHT22;68337;52.196;5.660;2023-05-20T15:16:11;23.60;52.10
75321;DHT22;68337;52.196;5.660;2023-05-20T15:18:37;23.10;52.50
75321;DHT22;68337;52.196;5.660;2023-05-20T15:21:02;22.50;53.60
75321;DHT22;68337;52.196;5.660;2023-05-20T15:23:28;22.50;54.10
75321;DHT22;68337;52.196;5.660;2023-05-20T15:25:54;22.40;54.80
75321;DHT22;68337;52.196;5.660;2023-05-20T15:28:20;22.50;54.20
75321;DHT22;68337;52.196;5.660;2023-05-20T15:30:52;22.30;55.20
75321;DHT22;68337;52.196;5.660;2023-05-20T15:33:18;22.10;54.40
75321;DHT22;68337;52.196;5.660;2023-05-20T15:35:43;22.00;55.40
75321;DHT22;68337;52.196;5.660;2023-05-20T15:38:09;22.30;55.00